createdAt,value
2018-10-05T00:02:25.947Z,9.90
2018-10-05T00:05:59.179Z,9.90
2018-10-05T00:09:32.420Z,9.80
2018-10-05T00:13:05.703Z,9.80
2018-10-05T00:16:38.925Z,9.80
2018-10-05T00:20:12.164Z,9.80
2018-10-05T00:23:45.397Z,9.80
2018-10-05T00:27:18.603Z,9.80
2018-10-05T00:30:51.840Z,9.80
2018-10-05T00:34:25.064Z,9.70
2018-10-05T00:37:58.341Z,9.80
2018-10-05T00:41:31.524Z,9.70
2018-10-05T00:45:05.144Z,9.70
2018-10-05T00:48:38.415Z,9.70
2018-10-05T00:52:11.628Z,9.70
2018-10-05T00:55:44.860Z,9.70
2018-10-05T00:59:18.083Z,9.70
2018-10-05T01:02:51.291Z,9.60
2018-10-05T01:06:24.589Z,9.60
2018-10-05T01:09:57.927Z,9.60
2018-10-05T01:13:31.159Z,9.50
2018-10-05T01:17:04.370Z,9.50
2018-10-05T01:20:37.607Z,9.40
2018-10-05T01:24:10.832Z,9.40
2018-10-05T01:27:44.037Z,9.40
2018-10-05T01:31:17.265Z,9.40
2018-10-05T01:34:50.480Z,9.30
2018-10-05T01:38:23.713Z,9.30
2018-10-05T01:41:56.921Z,9.20
2018-10-05T01:45:30.144Z,9.10
2018-10-05T01:49:03.411Z,9.10
2018-10-05T01:52:36.626Z,9.00
2018-10-05T01:56:09.856Z,9.00
2018-10-05T01:59:43.088Z,8.90
2018-10-05T02:03:16.287Z,8.80
2018-10-05T02:06:49.560Z,8.90
2018-10-05T02:10:22.793Z,8.90
2018-10-05T02:13:56.029Z,8.80
2018-10-05T02:17:29.244Z,8.80
2018-10-05T02:21:02.469Z,8.80
2018-10-05T02:24:35.693Z,8.80
2018-10-05T02:28:08.911Z,8.70
2018-10-05T02:31:42.137Z,8.70
2018-10-05T02:35:15.362Z,8.70
2018-10-05T02:38:48.589Z,8.70
2018-10-05T02:42:21.811Z,8.70
2018-10-05T02:45:55.033Z,8.70
2018-10-05T02:49:28.259Z,8.70
2018-10-05T02:53:01.476Z,8.60
2018-10-05T02:56:34.728Z,8.50
2018-10-05T03:00:18.036Z,8.50
2018-10-05T03:03:51.249Z,8.50
2018-10-05T03:07:24.904Z,8.40
2018-10-05T03:10:58.135Z,8.40
2018-10-05T03:14:31.367Z,8.40
2018-10-05T03:18:04.637Z,8.40
2018-10-05T03:21:37.864Z,8.50
2018-10-05T03:25:11.088Z,8.50
2018-10-05T03:28:44.467Z,8.50
2018-10-05T03:32:17.687Z,8.50
2018-10-05T03:35:50.921Z,8.40
2018-10-05T03:39:24.380Z,8.40
2018-10-05T03:42:57.615Z,8.40
2018-10-05T03:46:31.508Z,8.40
2018-10-05T03:50:04.728Z,8.40
2018-10-05T03:53:37.944Z,8.40
2018-10-05T03:57:11.173Z,8.40
2018-10-05T04:00:44.418Z,8.30
2018-10-05T04:04:17.631Z,8.30
2018-10-05T04:07:50.852Z,8.30
2018-10-05T04:11:24.101Z,8.30
2018-10-05T04:14:57.330Z,8.30
2018-10-05T04:18:30.561Z,8.20
2018-10-05T04:22:03.789Z,8.20
2018-10-05T04:25:37.012Z,8.20
2018-10-05T04:29:10.229Z,8.20
2018-10-05T04:32:43.447Z,8.20
2018-10-05T04:36:16.693Z,8.20
2018-10-05T04:39:49.913Z,8.10
2018-10-05T04:43:23.145Z,8.10
2018-10-05T04:46:56.392Z,8.00
2018-10-05T04:50:29.643Z,8.00
2018-10-05T04:54:02.875Z,8.00
2018-10-05T04:57:36.137Z,7.90
2018-10-05T05:01:09.364Z,7.90
2018-10-05T05:04:42.600Z,7.90
2018-10-05T05:08:15.827Z,7.80
2018-10-05T05:11:49.131Z,7.80
2018-10-05T05:15:22.464Z,7.70
2018-10-05T05:18:55.709Z,7.80
2018-10-05T05:22:29.045Z,7.80
2018-10-05T05:26:02.275Z,7.80
2018-10-05T05:29:35.732Z,7.80
2018-10-05T05:33:09.112Z,7.90
2018-10-05T05:36:42.360Z,7.90
2018-10-05T05:40:15.639Z,7.90
2018-10-05T05:43:48.907Z,7.90
2018-10-05T05:47:22.127Z,7.90
2018-10-05T05:50:55.368Z,7.90
2018-10-05T05:54:28.652Z,7.90
2018-10-05T05:58:01.859Z,8.00
2018-10-05T06:01:35.068Z,8.00
2018-10-05T06:05:08.296Z,8.00
2018-10-05T06:08:41.525Z,7.90
2018-10-05T06:12:16.568Z,7.70
2018-10-05T06:15:49.851Z,7.70
2018-10-05T06:19:23.080Z,7.80
2018-10-05T06:22:56.323Z,7.90
2018-10-05T06:26:29.910Z,7.90
2018-10-05T06:30:03.164Z,8.00
2018-10-05T06:33:36.439Z,8.10
2018-10-05T06:37:09.664Z,8.10
2018-10-05T06:40:42.900Z,8.10
2018-10-05T06:44:16.142Z,8.20
2018-10-05T06:47:49.387Z,8.20
2018-10-05T06:51:23.186Z,8.30
2018-10-05T06:54:56.436Z,8.40
2018-10-05T06:58:29.658Z,8.50
2018-10-05T07:02:02.870Z,8.50
2018-10-05T07:05:36.135Z,8.60
2018-10-05T07:09:09.380Z,8.70
2018-10-05T07:12:42.613Z,8.80
2018-10-05T07:16:15.828Z,8.90
2018-10-05T07:19:49.070Z,9.00
2018-10-05T07:23:22.368Z,9.10
2018-10-05T07:26:55.598Z,9.20
2018-10-05T07:30:28.823Z,9.40
2018-10-05T07:34:02.116Z,9.50
2018-10-05T07:37:35.352Z,9.70
2018-10-05T07:41:08.581Z,9.80
2018-10-05T07:44:41.847Z,10.00
2018-10-05T07:48:15.080Z,10.10
2018-10-05T07:51:48.331Z,10.20
2018-10-05T07:55:21.552Z,10.30
2018-10-05T07:58:54.812Z,10.40
2018-10-05T08:02:28.044Z,10.50
2018-10-05T08:06:01.263Z,10.70
2018-10-05T08:09:34.523Z,10.90
2018-10-05T08:13:07.759Z,11.00
2018-10-05T08:16:40.984Z,11.10
2018-10-05T08:20:14.224Z,11.30
2018-10-05T08:23:47.476Z,11.50
2018-10-05T08:27:21.508Z,11.70
2018-10-05T08:30:55.627Z,11.90
2018-10-05T08:34:30.338Z,12.10
2018-10-05T08:38:03.790Z,12.30
2018-10-05T08:41:38.350Z,12.50
2018-10-05T08:45:14.350Z,12.60
2018-10-05T08:48:47.664Z,12.90
2018-10-05T08:52:20.900Z,13.10
2018-10-05T08:55:54.222Z,13.30
2018-10-05T08:59:27.456Z,13.50
2018-10-05T09:03:00.688Z,13.70
2018-10-05T09:06:33.914Z,13.90
2018-10-05T09:10:07.565Z,14.00
2018-10-05T09:13:40.815Z,14.20
2018-10-05T09:17:14.044Z,14.40
2018-10-05T09:20:47.284Z,14.60
2018-10-05T09:24:20.523Z,14.80
2018-10-05T09:27:53.744Z,14.90
2018-10-05T09:31:26.997Z,15.10
2018-10-05T09:35:00.317Z,15.20
2018-10-05T09:38:33.573Z,15.40
2018-10-05T09:42:06.972Z,15.50
2018-10-05T09:45:40.191Z,15.70
2018-10-05T09:49:13.435Z,15.80
2018-10-05T09:52:46.672Z,16.00
2018-10-05T09:56:19.904Z,16.10
2018-10-05T09:59:53.238Z,16.30
2018-10-05T10:03:29.496Z,16.40
2018-10-05T10:07:02.687Z,16.60
2018-10-05T10:10:35.919Z,16.70
2018-10-05T10:14:09.181Z,16.80
2018-10-05T10:17:42.420Z,17.00
2018-10-05T10:21:15.746Z,17.20
2018-10-05T10:24:48.982Z,17.30
2018-10-05T10:28:22.245Z,17.60
2018-10-05T10:31:55.454Z,17.70
2018-10-05T10:35:28.709Z,17.90
2018-10-05T10:39:01.929Z,18.00
2018-10-05T10:42:35.167Z,18.20
2018-10-05T10:46:08.452Z,18.30
2018-10-05T10:49:41.704Z,18.50
2018-10-05T10:53:14.951Z,18.70
2018-10-05T10:56:48.199Z,18.80
2018-10-05T11:00:21.433Z,19.00
2018-10-05T11:03:54.670Z,19.10
2018-10-05T11:07:27.904Z,19.20
2018-10-05T11:11:01.173Z,19.30
2018-10-05T11:14:34.444Z,19.40
2018-10-05T11:18:07.672Z,19.50
2018-10-05T11:21:40.900Z,19.60
2018-10-05T11:25:14.117Z,19.70
2018-10-05T11:28:47.356Z,19.80
2018-10-05T11:32:20.585Z,19.90
2018-10-05T11:35:53.796Z,20.00
2018-10-05T11:39:27.043Z,20.10
2018-10-05T11:43:00.294Z,20.20
2018-10-05T11:46:33.512Z,20.30
2018-10-05T11:50:06.764Z,20.40
2018-10-05T11:53:39.993Z,20.50
2018-10-05T11:57:13.220Z,20.50
2018-10-05T12:00:46.454Z,20.60
2018-10-05T12:04:19.683Z,20.60
2018-10-05T12:07:52.971Z,20.70
2018-10-05T12:11:26.248Z,20.70
2018-10-05T12:14:59.512Z,20.70
2018-10-05T12:18:32.741Z,20.80
2018-10-05T12:22:06.086Z,20.70
2018-10-05T12:25:39.324Z,20.80
2018-10-05T12:29:12.541Z,20.80
2018-10-05T12:32:45.836Z,20.80
2018-10-05T12:36:19.083Z,20.80
2018-10-05T12:39:52.303Z,20.80
2018-10-05T12:43:25.555Z,20.80
2018-10-05T12:46:59.310Z,20.80
2018-10-05T12:50:32.560Z,20.80
2018-10-05T12:54:05.812Z,20.70
2018-10-05T12:57:39.036Z,20.80
2018-10-05T13:01:12.265Z,20.70
2018-10-05T13:04:45.518Z,20.70
2018-10-05T13:08:18.749Z,20.80
2018-10-05T13:11:51.980Z,20.80
2018-10-05T13:15:25.227Z,20.90
2018-10-05T13:18:58.456Z,20.90
2018-10-05T13:22:31.675Z,20.90
2018-10-05T13:26:04.912Z,20.80
2018-10-05T13:29:38.137Z,20.80
2018-10-05T13:33:11.371Z,20.80
2018-10-05T13:36:44.600Z,20.80
2018-10-05T13:40:17.819Z,20.80
2018-10-05T13:43:51.044Z,20.80
2018-10-05T13:47:24.275Z,20.80
2018-10-05T13:50:57.521Z,20.80
2018-10-05T13:54:30.768Z,20.90
2018-10-05T13:58:03.992Z,20.90
2018-10-05T14:01:37.236Z,21.00
2018-10-05T14:05:10.456Z,21.00
2018-10-05T14:08:43.718Z,21.20
2018-10-05T14:12:16.976Z,21.20
2018-10-05T14:15:50.217Z,21.30
2018-10-05T14:19:23.440Z,21.30
2018-10-05T14:22:56.896Z,21.30
2018-10-05T14:26:30.107Z,21.40
2018-10-05T14:30:03.346Z,21.50
2018-10-05T14:33:36.604Z,21.50
2018-10-05T14:37:09.852Z,21.50
2018-10-05T14:40:43.112Z,21.40
2018-10-05T14:44:16.340Z,21.40
2018-10-05T14:47:49.579Z,21.30
2018-10-05T14:51:22.843Z,21.30
2018-10-05T14:54:56.600Z,21.20
2018-10-05T14:58:29.835Z,21.20
2018-10-05T15:02:03.053Z,21.20
2018-10-05T15:05:36.305Z,21.10
2018-10-05T15:09:09.565Z,21.00
2018-10-05T15:12:42.865Z,21.00
2018-10-05T15:16:16.045Z,21.00
2018-10-05T15:19:49.335Z,20.90
2018-10-05T15:23:22.558Z,20.80
2018-10-05T15:26:55.793Z,20.80
2018-10-05T15:30:29.013Z,20.70
2018-10-05T15:34:02.618Z,20.70
2018-10-05T15:37:35.860Z,20.60
2018-10-05T15:41:09.178Z,20.50
2018-10-05T15:44:42.421Z,20.50
2018-10-05T15:48:15.659Z,20.40
2018-10-05T15:51:49.160Z,20.40
2018-10-05T15:55:22.396Z,20.30
2018-10-05T15:58:56.468Z,20.30
2018-10-05T16:02:29.692Z,20.30
2018-10-05T16:06:03.818Z,20.30
2018-10-05T16:09:37.076Z,20.30
2018-10-05T16:13:10.299Z,20.20
2018-10-05T16:16:43.516Z,20.20
2018-10-05T16:20:16.749Z,20.10
2018-10-05T16:23:50.688Z,20.00
2018-10-05T16:27:23.902Z,20.00
2018-10-05T16:30:57.157Z,19.90
2018-10-05T16:34:30.362Z,19.80
2018-10-05T16:38:03.599Z,19.80
2018-10-05T16:41:36.905Z,19.70
2018-10-05T16:45:10.101Z,19.70
2018-10-05T16:48:43.363Z,19.60
2018-10-05T16:52:16.583Z,19.50
2018-10-05T16:55:49.810Z,19.40
2018-10-05T16:59:24.036Z,19.30
2018-10-05T17:02:57.273Z,19.20
2018-10-05T17:06:30.887Z,19.10
2018-10-05T17:10:04.132Z,19.00
2018-10-05T17:13:37.369Z,18.90
2018-10-05T17:17:10.664Z,18.70
2018-10-05T17:20:43.830Z,18.60
2018-10-05T17:24:17.121Z,18.50
2018-10-05T17:27:50.347Z,18.30
2018-10-05T17:31:23.764Z,18.20
2018-10-05T17:34:57.074Z,18.10
2018-10-05T17:38:30.256Z,18.00
2018-10-05T17:42:03.496Z,18.00
2018-10-05T17:45:36.728Z,18.00
2018-10-05T17:49:10.005Z,18.00
2018-10-05T17:52:43.361Z,18.00
2018-10-05T17:56:16.622Z,17.90
2018-10-05T17:59:49.864Z,17.90
2018-10-05T18:03:23.153Z,17.80
2018-10-05T18:06:56.603Z,17.80
2018-10-05T18:10:29.828Z,17.80
2018-10-05T18:14:03.120Z,17.80
2018-10-05T18:17:36.335Z,17.70
2018-10-05T18:21:09.575Z,17.60
2018-10-05T18:24:42.829Z,17.60
2018-10-05T18:28:16.080Z,17.50
2018-10-05T18:31:49.320Z,17.50
2018-10-05T18:35:22.543Z,17.40
2018-10-05T18:38:55.793Z,17.30
2018-10-05T18:42:29.027Z,17.30
2018-10-05T18:46:02.269Z,17.20
2018-10-05T18:49:35.513Z,17.10
2018-10-05T18:53:08.749Z,17.00
2018-10-05T18:56:53.465Z,17.00
2018-10-05T19:00:26.692Z,16.90
2018-10-05T19:04:00.028Z,16.80
2018-10-05T19:07:33.279Z,16.80
2018-10-05T19:11:06.540Z,16.70
2018-10-05T19:14:39.784Z,16.60
2018-10-05T19:18:13.017Z,16.50
2018-10-05T19:21:46.265Z,16.40
2018-10-05T19:25:19.865Z,16.30
2018-10-05T19:28:53.107Z,16.20
2018-10-05T19:32:26.336Z,16.10
2018-10-05T19:35:59.648Z,16.00
2018-10-05T19:39:32.912Z,15.90
2018-10-05T19:43:06.177Z,15.90
2018-10-05T19:46:39.769Z,15.80
2018-10-05T19:50:12.994Z,15.70
2018-10-05T19:53:46.423Z,15.60
2018-10-05T19:57:19.617Z,15.60
2018-10-05T20:00:52.879Z,15.50
2018-10-05T20:04:26.137Z,15.50
2018-10-05T20:07:59.412Z,15.40
2018-10-05T20:11:33.298Z,15.30
2018-10-05T20:15:06.894Z,15.30
2018-10-05T20:18:40.940Z,15.20
2018-10-05T20:22:15.172Z,15.20
2018-10-05T20:25:48.431Z,15.20
2018-10-05T20:29:22.441Z,15.30
2018-10-05T20:32:55.796Z,15.20
2018-10-05T20:36:29.171Z,15.20
2018-10-05T20:40:02.752Z,15.20
2018-10-05T20:43:35.984Z,15.20
2018-10-05T20:47:09.887Z,15.10
2018-10-05T20:50:43.117Z,15.10
2018-10-05T20:54:17.108Z,15.10
2018-10-05T20:57:50.395Z,15.00
2018-10-05T21:01:24.149Z,15.00
2018-10-05T21:04:57.396Z,14.90
2018-10-05T21:08:30.644Z,14.90
2018-10-05T21:12:03.916Z,14.90
2018-10-05T21:15:37.152Z,14.90
2018-10-05T21:19:10.388Z,14.80
2018-10-05T21:22:43.619Z,14.80
2018-10-05T21:26:16.859Z,14.80
2018-10-05T21:29:50.105Z,14.70
2018-10-05T21:33:23.424Z,14.70
2018-10-05T21:36:56.628Z,14.60
2018-10-05T21:40:29.945Z,14.50
2018-10-05T21:44:03.199Z,14.40
2018-10-05T21:47:36.420Z,14.30
2018-10-05T21:51:09.657Z,14.30
2018-10-05T21:54:42.917Z,14.30
2018-10-05T21:58:16.218Z,14.30
2018-10-05T22:01:49.459Z,14.20
2018-10-05T22:05:22.692Z,14.20
2018-10-05T22:08:55.913Z,14.20
2018-10-05T22:12:29.732Z,14.10
2018-10-05T22:16:03.028Z,14.10
2018-10-05T22:19:36.329Z,14.10
2018-10-05T22:23:09.504Z,14.10
2018-10-05T22:26:42.732Z,14.00
2018-10-05T22:30:15.969Z,14.00
2018-10-05T22:33:49.228Z,13.90
2018-10-05T22:37:22.467Z,13.80
2018-10-05T22:40:55.725Z,13.70
2018-10-05T22:44:28.947Z,13.70
2018-10-05T22:48:02.186Z,13.60
2018-10-05T22:51:35.428Z,13.60
2018-10-05T22:55:08.657Z,13.50
2018-10-05T22:58:41.874Z,13.50
2018-10-05T23:02:15.107Z,13.50
2018-10-05T23:05:48.364Z,13.40
2018-10-05T23:09:21.590Z,13.30
2018-10-05T23:12:54.842Z,13.30
2018-10-05T23:16:28.075Z,13.20
2018-10-05T23:20:01.291Z,13.20
2018-10-05T23:23:34.554Z,13.20
2018-10-05T23:27:07.960Z,13.10
2018-10-05T23:30:41.193Z,13.10
2018-10-05T23:34:14.413Z,13.00
2018-10-05T23:37:47.656Z,13.00
2018-10-05T23:41:20.984Z,13.00
2018-10-05T23:44:54.198Z,12.90
2018-10-05T23:48:27.432Z,12.90
2018-10-05T23:52:09.524Z,12.80
2018-10-05T23:55:42.739Z,12.80
2018-10-05T23:59:15.965Z,12.80
